KHJO

Hanford Municipal Airport

Hanford, California, USA
METAR KHJO 170553Z AUTO 00000KT 10SM CLR 12/06 A3006 RMK AO2 SLP178 T01170056 10272 20117 52008
Observed Flight Rules
Oct-17 @ 05:53 UTC (26 minutes ago) Visual Flight Rules
Visibility Clouds
10 miles
  • Clear skies
Temperatures Readings
Current 12°C / 54°F
Dewpoint 6°C / 43°F
Humidity 67%
Altimeter 30.06" Hg
Pressure 1017.8 hPa
Elevation 74
METAR KHJO 170553Z AUTO 00000KT 10SM CLR 12/06 A3006 RMK AO2 SLP178 T01170056 10272 20117 52008
Observed Flight Rules
Oct-17 @ 05:53 UTC
(26 minutes ago)
VFR
Clouds
  • Clear skies
Temperature Dewpoint
12°C / 54°F 6°C / 43°F
Humidity Altimeter Pressure
67% 30.06" Hg 1017.8 hPa